Time;durP1;ratioP1;P1;durP2;ratioP2;P2;SDS_P1;SDS_P2;PMS_P1;PMS_P2;Temp;Humidity;BMP_temperature;BMP_pressure;BME280_temperature;BME280_humidity;BME280_pressure;Samples;Min_cycle;Max_cycle;Signal;HPM_P1;HPM_P2
2024/04/26 00:00:23;;;;;;;16.52;9.23;;;;;;;-146.27;86.88;43158.81;5463427;26;19994;-72
2024/04/26 00:02:49;;;;;;;24.33;11.57;;;;;;;-146.27;87.02;43148.88;5471245;26;19994;-72
2024/04/26 00:05:14;;;;;;;24.08;12.02;;;;;;;-146.27;86.96;43140.91;5467196;26;20085;-71
2024/04/26 00:07:40;;;;;;;24.10;12.70;;;;;;;-146.27;87.23;43144.91;5453406;26;19999;-72
2024/04/26 00:10:05;;;;;;;22.05;11.75;;;;;;;-146.27;87.40;43125.00;5461154;26;19990;-71
2024/04/26 00:12:30;;;;;;;26.02;12.90;;;;;;;-146.27;87.38;43123.00;5452736;26;19994;-72
2024/04/26 00:14:56;;;;;;;29.60;14.38;;;;;;;-146.27;87.23;43123.00;5448989;26;20032;-72
2024/04/26 00:17:21;;;;;;;25.42;12.80;;;;;;;-146.27;87.25;43109.09;5460514;26;20470;-70
2024/04/26 00:19:46;;;;;;;29.60;13.02;;;;;;;-146.27;87.11;43144.91;5458715;26;20460;-71
2024/04/26 00:22:12;;;;;;;28.67;13.65;;;;;;;-146.27;87.32;43148.88;5451193;26;20003;-72
2024/04/26 00:24:38;;;;;;;24.25;12.52;;;;;;;-146.27;87.70;43136.94;5455987;26;20079;-72
2024/04/26 00:27:03;;;;;;;30.05;13.02;;;;;;;-146.27;87.57;43121.03;5451798;26;20392;-71
2024/04/26 00:29:29;;;;;;;24.13;12.43;;;;;;;-146.27;87.59;43091.19;5475645;26;19995;-71
2024/04/26 00:31:54;;;;;;;19.30;11.65;;;;;;;-146.27;87.86;43073.28;5467731;26;20391;-71
2024/04/26 00:34:20;;;;;;;24.25;11.95;;;;;;;-146.27;87.36;43069.31;5472624;26;19998;-71
2024/04/26 00:36:45;;;;;;;24.55;12.48;;;;;;;-146.27;87.38;43115.06;5473669;26;19994;-71
2024/04/26 00:39:11;;;;;;;24.52;12.18;;;;;;;-146.27;87.30;43117.06;5469738;26;20063;-72
2024/04/26 00:41:36;;;;;;;24.95;12.68;;;;;;;-146.27;87.13;43128.97;5467273;26;20010;-70
2024/04/26 00:44:09;;;;;;;23.90;12.32;;;;;;;-146.27;87.00;43144.91;5462890;26;20478;-71
2024/04/26 00:46:35;;;;;;;23.00;13.20;;;;;;;-146.27;87.08;43127.00;5473285;26;20009;-72
2024/04/26 00:49:00;;;;;;;23.65;13.02;;;;;;;-146.27;86.91;43134.94;5471472;26;19994;-72
2024/04/26 00:51:27;;;;;;;27.95;13.00;;;;;;;-146.27;87.21;43156.84;5458646;26;20009;-73
2024/04/26 00:53:55;;;;;;;24.92;13.50;;;;;;;-146.27;86.87;43132.97;5451750;26;20001;-65
2024/04/26 00:56:21;;;;;;;23.75;13.55;;;;;;;-146.27;86.87;43164.78;5459620;26;20017;-66
2024/04/26 00:58:49;;;;;;;25.77;13.25;;;;;;;-146.27;86.53;43176.72;5458736;26;19994;-66
2024/04/26 01:01:15;;;;;;;22.70;12.82;;;;;;;-146.27;86.34;43164.78;5472625;26;20010;-67
2024/04/26 01:03:41;;;;;;;29.38;13.30;;;;;;;-146.27;86.52;43170.75;5457351;26;20000;-67
2024/04/26 01:06:06;;;;;;;30.02;13.23;;;;;;;-146.27;86.52;43204.56;5470849;26;20437;-66
2024/04/26 01:08:31;;;;;;;25.38;13.43;;;;;;;-146.27;86.65;43186.66;5457451;26;20392;-67
2024/04/26 01:10:57;;;;;;;23.23;13.57;;;;;;;-146.27;86.31;43204.56;5467576;26;19994;-67
2024/04/26 01:13:23;;;;;;;21.85;12.68;;;;;;;-146.27;86.54;43210.53;5447284;26;20387;-67
2024/04/26 01:15:48;;;;;;;19.02;11.13;;;;;;;-146.27;86.27;43172.75;5464760;26;20010;-66
2024/04/26 01:18:15;;;;;;;19.88;11.60;;;;;;;-146.27;86.26;43218.50;5464018;26;20434;-65
2024/04/26 01:20:41;;;;;;;23.88;12.13;;;;;;;-146.27;86.51;43200.59;5473808;26;20668;-65
2024/04/26 01:23:07;;;;;;;17.90;10.75;;;;;;;-146.27;86.53;43228.44;5456875;26;19999;-66
2024/04/26 01:25:32;;;;;;;20.67;10.52;;;;;;;-146.27;86.33;43210.53;5458331;26;20006;-66
2024/04/26 01:27:57;;;;;;;20.05;10.38;;;;;;;-146.27;86.16;43200.59;5461742;26;20006;-68
2024/04/26 01:30:25;;;;;;;24.17;10.27;;;;;;;-146.27;86.04;43182.69;5468088;26;20323;-67
2024/04/26 01:32:50;;;;;;;21.23;9.30;;;;;;;-146.27;86.05;43216.50;5450146;26;20655;-67
2024/04/26 01:35:16;;;;;;;16.55;9.20;;;;;;;-146.27;85.72;43208.56;5471047;26;20006;-67
2024/04/26 01:37:42;;;;;;;14.90;9.07;;;;;;;-146.27;85.80;43244.34;5453302;26;19995;-65
2024/04/26 01:40:07;;;;;;;14.63;8.98;;;;;;;-146.27;85.96;43288.13;5462153;26;20013;-65
2024/04/26 01:42:33;;;;;;;12.70;8.45;;;;;;;-146.27;86.35;43212.53;5479211;26;19998;-66
2024/04/26 01:44:58;;;;;;;13.68;8.27;;;;;;;-146.27;86.21;43234.41;5475357;26;20022;-68
2024/04/26 01:47:23;;;;;;;16.13;7.90;;;;;;;-146.27;86.18;43168.75;5477973;26;20002;-65
2024/04/26 01:49:49;;;;;;;14.55;6.78;;;;;;;-146.27;86.06;43226.44;5469326;26;19998;-66
2024/04/26 01:52:14;;;;;;;14.13;7.68;;;;;;;-146.27;85.67;43254.31;5464036;26;20006;-67
2024/04/26 01:54:39;;;;;;;13.13;7.18;;;;;;;-146.27;86.26;43236.41;5465979;26;20017;-67
2024/04/26 01:57:05;;;;;;;12.52;6.90;;;;;;;-146.27;86.15;43254.31;5459534;26;20020;-66
2024/04/26 01:59:31;;;;;;;12.82;6.18;;;;;;;-146.27;85.87;43232.41;5473770;26;20005;-68
2024/04/26 02:01:56;;;;;;;10.35;6.22;;;;;;;-146.27;85.45;43288.13;5458415;26;19999;-69
2024/04/26 02:04:22;;;;;;;9.18;5.28;;;;;;;-146.27;85.51;43264.25;5461105;26;20104;-66
2024/04/26 02:06:47;;;;;;;12.55;6.32;;;;;;;-146.27;85.71;43323.91;5459711;26;19998;-66
2024/04/26 02:09:12;;;;;;;10.38;5.43;;;;;;;-146.27;85.72;43292.09;5466228;26;20018;-68
2024/04/26 02:11:38;;;;;;;9.95;5.30;;;;;;;-146.27;85.70;43268.22;5460451;26;19999;-66
2024/04/26 02:14:03;;;;;;;8.15;4.18;;;;;;;-146.27;85.96;43256.28;5484988;26;20022;-68
2024/04/26 02:16:29;;;;;;;9.07;4.80;;;;;;;-146.27;85.49;43286.13;5478034;26;20410;-66
2024/04/26 02:18:57;;;;;;;9.57;4.65;;;;;;;-146.27;85.51;43280.16;5468116;26;20018;-66
2024/04/26 02:21:22;;;;;;;11.55;5.22;;;;;;;-146.27;85.45;43280.16;5462652;26;20022;-66
2024/04/26 02:23:47;;;;;;;7.05;4.25;;;;;;;-146.27;85.29;43260.25;5455478;26;20515;-65
2024/04/26 02:26:20;;;;;;;7.88;3.90;;;;;;;-146.27;85.41;43304.03;5463336;26;20589;-66
2024/04/26 02:28:46;;;;;;;8.90;3.90;;;;;;;-146.27;85.90;43282.16;5472808;26;19991;-65
2024/04/26 02:31:12;;;;;;;5.57;3.33;;;;;;;-146.27;85.51;43292.09;5457926;26;20098;-66
2024/04/26 02:33:37;;;;;;;6.70;4.00;;;;;;;-146.27;85.21;43276.19;5470112;26;20091;-66
2024/04/26 02:36:13;;;;;;;7.22;3.95;;;;;;;-146.27;85.19;43288.13;5452622;26;20466;-67
2024/04/26 02:38:40;;;;;;;6.50;3.50;;;;;;;-146.27;84.99;43294.09;5467934;26;19990;-65
2024/04/26 02:41:06;;;;;;;8.95;4.35;;;;;;;-146.27;84.99;43331.88;5461619;26;20075;-67
2024/04/26 02:43:31;;;;;;;8.18;3.45;;;;;;;-146.27;85.07;43306.00;5470848;26;20288;-67
2024/04/26 02:45:57;;;;;;;5.70;3.53;;;;;;;-146.27;84.75;43343.81;5462850;26;20441;-67
2024/04/26 02:48:22;;;;;;;4.95;3.47;;;;;;;-146.27;84.95;43367.69;5471451;26;20071;-66
2024/04/26 02:50:47;;;;;;;8.93;3.97;;;;;;;-146.27;84.89;43333.88;5454912;26;20031;-65
2024/04/26 02:53:13;;;;;;;7.78;3.83;;;;;;;-146.27;84.72;43355.75;5452469;26;19998;-65
2024/04/26 02:55:38;;;;;;;9.13;4.60;;;;;;;-146.27;84.97;43337.84;5470834;26;20066;-68
2024/04/26 02:58:04;;;;;;;6.55;4.05;;;;;;;-146.27;84.69;43383.59;5451956;26;20010;-66
2024/04/26 03:00:29;;;;;;;5.57;3.40;;;;;;;-146.27;84.50;43427.34;5460282;26;20002;-66
2024/04/26 03:02:54;;;;;;;7.28;3.75;;;;;;;-146.27;84.56;43389.56;5461863;26;20322;-67
2024/04/26 03:05:20;;;;;;;6.15;4.00;;;;;;;-146.27;84.53;43387.56;5452658;26;20497;-65
2024/04/26 03:07:49;;;;;;;8.85;3.95;;;;;;;-146.27;84.52;43405.47;5464325;26;19991;-65
2024/04/26 03:10:14;;;;;;;8.73;4.25;;;;;;;-146.27;84.45;43425.38;5472975;26;19995;-66
2024/04/26 03:12:39;;;;;;;7.50;3.83;;;;;;;-146.27;84.70;43403.50;5484515;26;20013;-68
2024/04/26 03:15:05;;;;;;;7.50;3.95;;;;;;;-146.27;84.50;43451.22;5454294;26;20075;-70
2024/04/26 03:17:31;;;;;;;7.32;3.90;;;;;;;-146.27;84.59;43411.44;5461844;26;20413;-70
2024/04/26 03:19:56;;;;;;;5.85;3.88;;;;;;;-146.27;84.64;43447.25;5476922;26;20006;-70
2024/04/26 03:22:21;;;;;;;6.35;3.90;;;;;;;-146.27;84.56;43447.25;5450254;26;20082;-71
2024/04/26 03:24:46;;;;;;;10.23;4.22;;;;;;;-146.27;84.83;43447.25;5457605;26;19998;-70
2024/04/26 03:27:12;;;;;;;5.20;3.63;;;;;;;-146.27;84.90;43423.38;5452347;26;20156;-71
2024/04/26 03:29:37;;;;;;;8.60;3.42;;;;;;;-146.27;84.88;43443.28;5459228;26;20006;-72
2024/04/26 03:32:03;;;;;;;5.82;3.33;;;;;;;-146.27;85.15;43439.28;5468926;26;19999;-72
2024/04/26 03:34:28;;;;;;;5.20;3.33;;;;;;;-146.27;84.96;43435.31;5467433;26;19995;-71
2024/04/26 03:36:55;;;;;;;5.35;3.30;;;;;;;-146.27;84.99;43441.28;5459865;26;20006;-71
2024/04/26 03:39:20;;;;;;;7.10;3.25;;;;;;;-146.27;84.94;43407.47;5460074;26;20787;-71
2024/04/26 03:41:46;;;;;;;5.85;3.33;;;;;;;-146.27;85.12;43407.47;5471485;26;20005;-70
2024/04/26 03:44:11;;;;;;;7.25;3.42;;;;;;;-146.27;84.97;43439.28;5461721;26;19991;-68
2024/04/26 03:46:42;;;;;;;5.15;3.65;;;;;;;-146.27;84.98;43413.44;5475490;26;20026;-64
2024/04/26 03:49:08;;;;;;;5.50;3.17;;;;;;;-146.27;84.96;43403.50;5466081;26;20082;-66
2024/04/26 03:51:34;;;;;;;8.43;3.35;;;;;;;-146.27;85.10;43409.44;5465268;26;20010;-66
2024/04/26 03:53:59;;;;;;;5.85;3.42;;;;;;;-146.27;85.34;43391.56;5468258;26;19995;-65
2024/04/26 03:56:24;;;;;;;5.60;3.05;;;;;;;-146.27;85.22;43407.47;5466480;26;20005;-67
2024/04/26 03:58:50;;;;;;;8.85;3.95;;;;;;;-146.27;85.12;43393.53;5462724;26;20031;-67
2024/04/26 04:01:15;;;;;;;6.65;3.08;;;;;;;-146.27;85.38;43421.38;5465580;26;20011;-66
2024/04/26 04:03:41;;;;;;;5.60;3.40;;;;;;;-146.27;85.60;43369.66;5451550;26;19991;-66
2024/04/26 04:06:06;;;;;;;6.43;3.33;;;;;;;-146.27;85.63;43377.63;5457520;26;20006;-66
2024/04/26 04:08:31;;;;;;;5.45;3.63;;;;;;;-146.27;85.45;43387.56;5464154;26;20005;-64
2024/04/26 04:10:57;;;;;;;6.50;3.60;;;;;;;-146.27;85.83;43395.53;5458446;26;19998;-66
2024/04/26 04:13:22;;;;;;;4.50;3.30;;;;;;;-146.27;85.72;43357.72;5449475;26;19991;-66
2024/04/26 04:15:48;;;;;;;7.55;2.72;;;;;;;-146.27;85.53;43371.66;5458911;26;20447;-67
2024/04/26 04:18:16;;;;;;;7.10;3.17;;;;;;;-146.27;85.66;43387.56;5471411;26;19990;-67
2024/04/26 04:20:41;;;;;;;5.18;2.88;;;;;;;-146.27;85.64;43375.63;5452870;26;20520;-65
2024/04/26 04:23:07;;;;;;;6.90;3.30;;;;;;;-146.27;85.78;43411.44;5468846;26;20010;-65
2024/04/26 04:25:32;;;;;;;5.15;3.05;;;;;;;-146.27;85.71;43433.31;5456169;26;20066;-72
2024/04/26 04:27:57;;;;;;;4.47;3.25;;;;;;;-146.27;85.96;43451.22;5463844;26;20013;-71
2024/04/26 04:30:22;;;;;;;6.05;3.65;;;;;;;-146.27;85.90;43504.94;5457260;26;20386;-72
2024/04/26 04:32:48;;;;;;;7.30;3.25;;;;;;;-146.27;85.63;43542.72;5477506;26;20392;-71
2024/04/26 04:35:14;;;;;;;5.70;3.45;;;;;;;-146.27;85.75;43562.63;5460833;26;19994;-70
2024/04/26 04:37:39;;;;;;;9.45;3.83;;;;;;;-146.27;85.66;43624.28;5461248;26;20036;-71
2024/04/26 04:40:05;;;;;;;6.32;3.45;;;;;;;-146.27;86.08;43634.25;5456084;26;20002;-70
2024/04/26 04:42:31;;;;;;;9.00;3.80;;;;;;;-146.27;86.10;43658.13;5468733;26;20502;-70
2024/04/26 04:44:56;;;;;;;7.70;3.65;;;;;;;-146.27;86.16;43701.88;5483410;26;20072;-71
2024/04/26 04:47:21;;;;;;;7.20;3.55;;;;;;;-146.27;86.05;43735.69;5472278;26;19998;-72
2024/04/26 04:49:47;;;;;;;6.95;4.03;;;;;;;-146.27;86.21;43779.47;5466941;26;20010;-70
2024/04/26 04:52:12;;;;;;;8.25;4.47;;;;;;;-146.27;86.13;43813.28;5479461;26;20008;-71
2024/04/26 04:54:39;;;;;;;10.77;4.43;;;;;;;-146.27;86.26;43859.03;5479984;26;20458;-72
2024/04/26 04:57:05;;;;;;;6.43;3.78;;;;;;;-146.27;86.36;43888.88;5455693;26;20003;-71
2024/04/26 04:59:31;;;;;;;7.28;4.28;;;;;;;-146.27;86.45;43932.66;5464249;26;19994;-72
2024/04/26 05:01:56;;;;;;;7.40;3.70;;;;;;;-146.27;86.82;43960.50;5471866;26;20481;-72
2024/04/26 05:04:22;;;;;;;7.47;3.45;;;;;;;-146.27;86.37;44032.13;5473420;26;19990;-72
2024/04/26 05:06:47;;;;;;;7.95;3.65;;;;;;;-146.27;86.31;44061.97;5453517;26;20747;-70
2024/04/26 05:09:12;;;;;;;9.80;3.75;;;;;;;-146.27;86.79;44073.91;5453188;26;19999;-72
2024/04/26 05:11:38;;;;;;;7.82;3.60;;;;;;;-146.27;86.67;44127.63;5448549;26;19999;-72
2024/04/26 05:14:03;;;;;;;6.32;3.33;;;;;;;-146.27;87.05;44115.69;5461302;26;20109;-71
2024/04/26 05:16:28;;;;;;;9.20;4.25;;;;;;;-146.27;87.10;44133.59;5456250;26;20002;-72
2024/04/26 05:18:55;;;;;;;6.15;4.20;;;;;;;-146.27;86.67;44129.63;5455908;26;20326;-73
2024/04/26 05:21:20;;;;;;;4.97;3.08;;;;;;;-146.27;86.45;44119.66;5465334;26;20106;-72
2024/04/26 05:23:46;;;;;;;8.07;3.63;;;;;;;-146.27;86.64;44119.66;5472679;26;20013;-71
2024/04/26 05:26:11;;;;;;;10.43;3.03;;;;;;;-146.27;86.43;44103.75;5470217;26;19998;-70
2024/04/26 05:28:37;;;;;;;8.82;3.08;;;;;;;-146.27;86.56;44115.69;5451648;26;19991;-71
2024/04/26 05:31:02;;;;;;;6.05;2.50;;;;;;;-146.27;86.43;44113.69;5454674;26;20369;-71
2024/04/26 05:33:27;;;;;;;5.47;2.40;;;;;;;-146.27;86.34;44103.75;5460937;26;20010;-72
2024/04/26 05:35:53;;;;;;;6.65;2.30;;;;;;;-146.27;85.86;44123.66;5455314;26;20451;-71
2024/04/26 05:38:18;;;;;;;3.80;1.45;;;;;;;-146.27;85.68;44129.63;5449309;26;20455;-71
2024/04/26 05:40:46;;;;;;;7.18;1.77;;;;;;;-146.27;85.15;44161.44;5463290;26;20019;-71
2024/04/26 05:43:18;;;;;;;5.28;1.73;;;;;;;-146.27;84.88;44175.38;5459168;26;20017;-72
2024/04/26 05:45:43;;;;;;;3.92;1.92;;;;;;;-146.27;85.05;44169.41;5456194;26;20027;-72
2024/04/26 05:48:08;;;;;;;2.95;1.20;;;;;;;-146.27;84.74;44177.38;5471390;26;20002;-70
2024/04/26 05:50:34;;;;;;;3.38;1.30;;;;;;;-146.27;83.99;44215.16;5471817;26;20002;-71
2024/04/26 05:52:59;;;;;;;2.95;1.00;;;;;;;-146.27;82.83;44250.97;5481157;25;20551;-70
2024/04/26 05:55:24;;;;;;;5.55;1.13;;;;;;;-146.27;82.15;44350.47;5470880;26;20020;-72
2024/04/26 05:57:50;;;;;;;3.38;0.90;;;;;;;-146.27;81.00;44426.06;5468020;26;20396;-71
2024/04/26 06:00:15;;;;;;;4.43;1.10;;;;;;;-146.27;80.01;44517.59;5463441;26;20006;-72
2024/04/26 06:02:43;;;;;;;5.05;1.13;;;;;;;-146.27;80.39;44509.66;5475259;26;20018;-72
2024/04/26 06:05:11;;;;;;;2.50;1.17;;;;;;;-146.27;79.62;44555.41;5453937;26;19995;-72
2024/04/26 06:07:40;;;;;;;2.95;1.20;;;;;;;-146.27;80.10;44521.59;5464497;26;20006;-72
2024/04/26 06:10:06;;;;;;;3.65;0.88;;;;;;;-146.27;79.04;44627.03;5462406;26;20010;-73
2024/04/26 06:12:32;;;;;;;6.22;1.13;;;;;;;-146.27;78.56;44664.84;5452080;26;20727;-71
2024/04/26 06:14:58;;;;;;;4.93;1.00;;;;;;;-146.27;76.82;44812.09;5461025;26;19999;-71
2024/04/26 06:17:25;;;;;;;4.28;0.95;;;;;;;-146.27;76.61;44828.03;5461543;26;20529;-71
2024/04/26 06:19:52;;;;;;;7.28;1.23;;;;;;;-146.27;75.62;44849.91;5463067;26;20378;-73
2024/04/26 06:22:17;;;;;;;7.75;1.35;;;;;;;-146.27;75.84;44891.69;5465491;26;20121;-72
2024/04/26 06:24:43;;;;;;;4.43;1.88;;;;;;;-146.27;75.76;44899.66;5459160;26;20016;-74
2024/04/26 06:27:08;;;;;;;5.57;0.80;;;;;;;-146.27;75.31;44883.75;5455223;26;20002;-71
2024/04/26 06:29:34;;;;;;;10.02;0.98;;;;;;;-146.27;75.20;44965.34;5477573;26;20005;-71
2024/04/26 06:32:03;;;;;;;2.63;0.60;;;;;;;-146.27;72.74;45122.53;5461567;26;20030;-70
2024/04/26 06:34:31;;;;;;;4.75;0.82;;;;;;;-146.27;71.22;45228.03;5452620;26;20001;-72
2024/04/26 06:36:57;;;;;;;4.22;0.77;;;;;;;-146.27;72.35;45150.41;5454722;26;21106;-72
2024/04/26 06:39:22;;;;;;;3.92;1.23;;;;;;;-146.27;71.83;45255.88;5453281;26;20002;-72
2024/04/26 06:41:47;;;;;;;1.25;0.65;;;;;;;-146.27;72.10;45176.28;5463458;26;20013;-70
2024/04/26 06:44:13;;;;;;;3.55;0.93;;;;;;;-146.27;71.40;45259.88;5471029;26;20016;-72
2024/04/26 06:46:38;;;;;;;2.83;0.98;;;;;;;-146.27;70.93;45235.97;5467219;26;20391;-72
2024/04/26 06:49:03;;;;;;;2.42;0.60;;;;;;;-146.27;71.10;45230.00;5457903;26;20002;-73
2024/04/26 06:51:29;;;;;;;1.92;0.80;;;;;;;-146.27;69.58;45333.50;5470054;26;20007;-73
2024/04/26 06:53:54;;;;;;;2.47;0.65;;;;;;;-146.27;68.94;45329.53;5468142;26;20006;-72
2024/04/26 06:56:19;;;;;;;4.57;0.95;;;;;;;-146.27;68.69;45357.38;5461922;26;20576;-71
2024/04/26 06:58:46;;;;;;;2.83;0.70;;;;;;;-146.27;67.78;45460.88;5470162;26;19995;-71
2024/04/26 07:01:11;;;;;;;3.45;0.85;;;;;;;-146.27;67.49;45530.53;5467925;26;20494;-72
2024/04/26 07:03:40;;;;;;;2.65;0.52;;;;;;;-146.27;68.52;45448.94;5482320;26;20006;-72
2024/04/26 07:06:07;;;;;;;5.47;1.05;;;;;;;-146.27;69.82;45389.22;5476420;26;19995;-72
2024/04/26 07:08:32;;;;;;;4.07;1.17;;;;;;;-146.27;70.40;45456.91;5476753;26;20002;-72
2024/04/26 07:10:58;;;;;;;5.57;1.02;;;;;;;-146.27;71.83;45399.19;5466540;26;19995;-73
2024/04/26 07:13:23;;;;;;;5.28;0.95;;;;;;;-146.27;72.51;45353.41;5473178;26;20555;-72
2024/04/26 07:15:48;;;;;;;0.65;0.60;;;;;;;-146.27;72.68;45293.69;5463766;26;20018;-71
2024/04/26 07:18:14;;;;;;;2.08;0.98;;;;;;;-146.27;70.65;45413.09;5478968;26;20738;-72
2024/04/26 07:20:39;;;;;;;6.82;0.95;;;;;;;-146.27;71.41;45383.25;5453554;26;19995;-73
2024/04/26 07:23:04;;;;;;;2.75;0.73;;;;;;;-146.27;70.85;45421.06;5460423;26;19998;-72
2024/04/26 07:25:30;;;;;;;3.38;0.93;;;;;;;-146.27;70.89;45395.19;5476397;26;19994;-71
2024/04/26 07:27:55;;;;;;;1.75;0.65;;;;;;;-146.27;67.74;45524.56;5472425;26;20454;-73
2024/04/26 07:30:20;;;;;;;5.15;0.95;;;;;;;-146.27;67.06;45608.16;5480403;26;20009;-71
2024/04/26 07:32:46;;;;;;;2.88;0.80;;;;;;;-146.27;66.99;45586.25;5483443;26;19990;-71
2024/04/26 07:35:11;;;;;;;3.65;0.63;;;;;;;-146.27;67.11;45620.09;5469223;26;20368;-76
2024/04/26 07:37:37;;;;;;;3.88;0.90;;;;;;;-146.27;65.34;45683.78;5460814;26;19990;-70
2024/04/26 07:40:03;;;;;;;2.15;0.85;;;;;;;-146.27;64.87;45775.34;5467052;26;20010;-70
2024/04/26 07:42:28;;;;;;;3.60;0.90;;;;;;;-146.27;65.03;45723.59;5471701;26;19990;-71
2024/04/26 07:44:54;;;;;;;3.85;0.82;;;;;;;-146.27;65.68;45677.81;5466755;26;20013;-71
2024/04/26 07:47:22;;;;;;;7.40;1.08;;;;;;;-146.27;66.23;45624.06;5480917;26;20486;-69
2024/04/26 07:49:47;;;;;;;3.45;1.02;;;;;;;-146.27;67.28;45667.88;5478408;26;20422;-70
2024/04/26 07:52:13;;;;;;;2.15;0.90;;;;;;;-146.27;69.54;45608.16;5466827;26;20002;-71
2024/04/26 07:54:38;;;;;;;3.33;1.15;;;;;;;-146.27;69.79;45642.00;5459568;26;20048;-71
2024/04/26 07:57:04;;;;;;;2.78;0.90;;;;;;;-146.27;71.28;45610.16;5479904;26;20092;-71
2024/04/26 07:59:29;;;;;;;0.77;0.40;;;;;;;-146.27;72.62;45540.50;5475281;26;20335;-72
2024/04/26 08:01:55;;;;;;;1.13;0.60;;;;;;;-146.27;73.46;45512.63;5461808;26;19999;-72
2024/04/26 08:04:20;;;;;;;1.77;1.00;;;;;;;-146.27;73.20;45520.59;5470320;26;20009;-70
2024/04/26 08:06:46;;;;;;;1.27;0.70;;;;;;;-146.27;72.06;45580.28;5459743;26;19998;-69
2024/04/26 08:09:12;;;;;;;3.55;0.88;;;;;;;-146.27;72.45;45534.50;5474649;26;20041;-70
2024/04/26 08:11:37;;;;;;;4.40;0.90;;;;;;;-146.27;72.96;45508.63;5484704;26;20446;-71
2024/04/26 08:14:02;;;;;;;3.38;1.08;;;;;;;-146.27;72.38;45490.72;5474295;26;20002;-71
2024/04/26 08:16:28;;;;;;;1.92;0.98;;;;;;;-146.27;72.47;45524.56;5457846;26;19995;-74
2024/04/26 08:18:53;;;;;;;4.85;1.08;;;;;;;-146.27;72.21;45528.53;5471587;26;19998;-71
2024/04/26 08:21:19;;;;;;;5.90;1.10;;;;;;;-146.27;71.42;45518.59;5466850;26;20068;-70
2024/04/26 08:23:44;;;;;;;1.63;1.00;;;;;;;-146.27;69.90;45564.38;5472613;26;20572;-70
2024/04/26 08:26:10;;;;;;;2.83;1.20;;;;;;;-146.27;68.77;45632.03;5473161;26;20493;-70
2024/04/26 08:28:35;;;;;;;2.97;0.98;;;;;;;-146.27;68.79;45594.22;5478787;26;20001;-70
2024/04/26 08:31:04;;;;;;;12.45;1.02;;;;;;;-146.27;67.07;45691.75;5462923;26;20624;-71
2024/04/26 08:33:29;;;;;;;3.92;0.82;;;;;;;-146.27;66.16;45854.97;5477683;26;19991;-70
2024/04/26 08:35:54;;;;;;;1.88;0.82;;;;;;;-146.27;66.61;45775.34;5472132;26;19997;-71
2024/04/26 08:38:20;;;;;;;3.83;0.80;;;;;;;-146.27;65.16;45850.97;5497817;25;19994;-70
2024/04/26 08:40:45;;;;;;;2.30;1.00;;;;;;;-146.27;65.32;45858.94;5465244;26;20445;-70
2024/04/26 08:43:12;;;;;;;6.03;1.02;;;;;;;-146.27;64.01;45862.94;5457202;26;19994;-70
2024/04/26 08:45:41;;;;;;;4.18;1.00;;;;;;;-146.27;63.13;45952.50;5471987;26;20013;-71
2024/04/26 08:48:08;;;;;;;2.40;0.95;;;;;;;-146.27;62.55;45890.78;5477944;26;20736;-72
2024/04/26 08:50:35;;;;;;;5.35;1.15;;;;;;;-146.27;62.34;46046.06;5484209;26;20013;-70
2024/04/26 08:53:04;;;;;;;2.83;0.90;;;;;;;-146.27;63.28;45954.50;5476707;26;20339;-70
2024/04/26 08:55:29;;;;;;;12.88;1.13;;;;;;;-146.27;61.46;46044.06;5460660;26;20067;-72
2024/04/26 08:57:55;;;;;;;5.03;1.00;;;;;;;-146.27;60.14;46073.91;5467529;26;20395;-69
2024/04/26 09:00:22;;;;;;;3.97;0.93;;;;;;;-146.27;59.04;46137.63;5476282;26;20001;-70
2024/04/26 09:02:48;;;;;;;1.95;0.60;;;;;;;-146.27;59.28;46109.75;5480374;26;20023;-68
2024/04/26 09:05:19;;;;;;;5.25;1.00;;;;;;;-146.27;58.00;46211.28;5462348;26;20029;-67
2024/04/26 09:07:44;;;;;;;6.70;0.98;;;;;;;-146.27;57.97;46245.13;5469609;26;20005;-67
2024/04/26 09:10:09;;;;;;;2.92;0.93;;;;;;;-146.27;58.42;46237.16;5469661;26;19998;-68
2024/04/26 09:12:35;;;;;;;3.25;0.63;;;;;;;-146.27;57.39;46302.84;5465785;26;20435;-67
2024/04/26 09:15:02;;;;;;;3.55;0.90;;;;;;;-146.27;56.91;46269.00;5477037;26;19998;-68
2024/04/26 09:17:31;;;;;;;5.40;0.68;;;;;;;-146.27;56.91;46298.88;5466701;26;20379;-66
2024/04/26 09:19:56;;;;;;;3.50;0.63;;;;;;;-146.27;56.48;46308.81;5471908;26;20070;-67
2024/04/26 09:22:23;;;;;;;3.88;0.63;;;;;;;-146.27;54.71;46420.28;5469570;26;20050;-67
2024/04/26 09:24:49;;;;;;;5.10;1.05;;;;;;;-146.27;55.94;46384.47;5465703;26;20340;-69
2024/04/26 09:27:15;;;;;;;2.15;0.77;;;;;;;-146.27;53.79;46446.19;5464036;26;19998;-67
2024/04/26 09:29:40;;;;;;;2.47;0.70;;;;;;;-146.27;54.86;46400.38;5469174;26;20005;-67
2024/04/26 09:32:05;;;;;;;2.67;0.70;;;;;;;-146.27;52.79;46418.31;5467938;26;20010;-68
2024/04/26 09:34:36;;;;;;;4.65;1.48;;;;;;;-146.27;52.11;46452.16;5457610;26;20067;-66
2024/04/26 09:37:04;;;;;;;1.40;0.70;;;;;;;-146.27;51.49;46497.94;5462175;26;19998;-68
2024/04/26 09:39:32;;;;;;;3.85;0.82;;;;;;;-146.27;51.86;46515.84;5476333;26;20010;-68
2024/04/26 09:41:58;;;;;;;4.35;0.77;;;;;;;-146.27;50.62;46472.06;5467670;26;20072;-65
2024/04/26 09:44:24;;;;;;;7.25;1.20;;;;;;;-146.27;52.41;46531.78;5463284;26;20031;-68
2024/04/26 09:46:50;;;;;;;2.42;0.95;;;;;;;-146.27;51.75;46567.63;5470104;26;20001;-70
2024/04/26 09:49:16;;;;;;;3.00;1.10;;;;;;;-146.27;53.37;46547.72;5483613;26;20005;-68
2024/04/26 09:51:46;;;;;;;3.55;1.10;;;;;;;-146.27;52.56;46523.81;5480669;26;20660;-66
2024/04/26 09:54:14;;;;;;;5.65;0.75;;;;;;;-146.27;53.32;46444.19;5455352;26;19999;-67
2024/04/26 09:56:40;;;;;;;3.53;0.90;;;;;;;-146.27;55.37;46392.44;5461923;26;20323;-66
2024/04/26 09:59:06;;;;;;;3.13;0.88;;;;;;;-146.27;55.11;46432.25;5484343;26;20026;-67
2024/04/26 10:01:34;;;;;;;4.43;0.93;;;;;;;-146.27;57.28;46340.66;5475311;26;19999;-67
2024/04/26 10:04:02;;;;;;;2.08;0.80;;;;;;;-146.27;56.92;46245.13;5473789;26;20053;-67
2024/04/26 10:06:37;;;;;;;2.78;1.00;;;;;;;-146.27;52.50;46376.50;5481426;26;19998;-67
2024/04/26 10:09:08;;;;;;;2.40;0.70;;;;;;;-146.27;51.97;46396.41;5455561;26;20010;-68
2024/04/26 10:11:33;;;;;;;2.70;0.70;;;;;;;-146.27;52.00;46426.28;5483698;26;20327;-68
2024/04/26 10:14:00;;;;;;;3.10;1.10;;;;;;;-146.27;52.08;46428.25;5470071;26;20010;-67
2024/04/26 10:16:28;;;;;;;1.13;0.70;;;;;;;-146.27;52.87;46444.19;5479851;26;20005;-66
2024/04/26 10:18:57;;;;;;;1.10;0.68;;;;;;;-146.27;52.19;46531.78;5487528;26;20389;-69
2024/04/26 10:21:25;;;;;;;3.03;0.80;;;;;;;-146.27;53.01;46587.53;5455129;26;20323;-70
2024/04/26 10:23:58;;;;;;;2.22;0.85;;;;;;;-146.27;55.00;46587.53;5486977;26;20450;-66
2024/04/26 10:26:24;;;;;;;7.13;0.90;;;;;;;-146.27;54.86;46476.03;5486667;26;20026;-67
2024/04/26 10:28:49;;;;;;;1.80;0.82;;;;;;;-146.27;52.23;46472.06;5488272;26;20016;-66
2024/04/26 10:31:24;;;;;;;2.25;0.80;;;;;;;-146.27;51.04;46499.94;5461054;26;20009;-67
2024/04/26 10:33:49;;;;;;;1.52;0.52;;;;;;;-146.27;50.28;46430.25;5467810;26;19999;-67
2024/04/26 10:36:18;;;;;;;4.22;0.73;;;;;;;-146.27;49.32;46440.19;5466482;26;20002;-67
2024/04/26 10:38:48;;;;;;;7.18;0.90;;;;;;;-146.27;47.61;46484.00;5481579;26;20070;-68
2024/04/26 10:41:18;;;;;;;2.97;0.75;;;;;;;-146.27;45.93;46531.78;5456467;26;20063;-65
2024/04/26 10:43:44;;;;;;;1.38;0.40;;;;;;;-146.27;44.92;46675.13;5470816;26;19998;-67
2024/04/26 10:46:14;;;;;;;3.45;0.70;;;;;;;-146.27;45.35;46708.97;5479991;26;20026;-66
2024/04/26 10:48:40;;;;;;;1.33;0.40;;;;;;;-146.27;45.67;46802.53;5450657;26;20014;-67
2024/04/26 10:51:05;;;;;;;2.13;0.70;;;;;;;-146.27;46.35;46800.53;5451597;26;19995;-67
2024/04/26 10:53:33;;;;;;;2.45;0.80;;;;;;;-146.27;51.44;46613.41;5451121;26;19991;-68
2024/04/26 10:56:00;;;;;;;1.63;0.70;;;;;;;-146.27;45.96;46754.75;5450725;26;19999;-65
2024/04/26 10:58:39;;;;;;;3.40;0.80;;;;;;;-146.27;43.77;46770.69;5451040;26;20014;-66
2024/04/26 11:01:13;;;;;;;2.17;0.70;;;;;;;-146.27;44.56;46816.47;5478894;26;20013;-66
2024/04/26 11:03:39;;;;;;;1.50;0.43;;;;;;;-146.27;44.60;46858.28;5484171;26;20017;-68
2024/04/26 11:06:04;;;;;;;2.45;0.75;;;;;;;-146.27;45.62;46848.31;5482129;26;20014;-67
2024/04/26 11:08:29;;;;;;;2.75;0.88;;;;;;;-146.27;46.13;46870.22;5450993;26;20014;-66